Time;durP1;ratioP1;P1;durP2;ratioP2;P2;SDS_P1;SDS_P2;PMS_P1;PMS_P2;Temp;Humidity;BMP_temperature;BMP_pressure;BME280_temperature;BME280_humidity;BME280_pressure;Samples;Min_cycle;Max_cycle;Signal;HPM_P1;HPM_P2
2022/10/27 00:00:50;;;;;;;14.73;4.28;;;;;;;;;;5010683;28;20068;-74
2022/10/27 00:03:35;;;;;;;11.68;3.17;;;;;;;;;;5012520;28;20049;-72
2022/10/27 00:06:20;;;;;;;11.65;3.40;;;;;;;;;;5020497;28;20112;-72
2022/10/27 00:09:06;;;;;;;11.63;4.55;;;;;;;;;;5018929;28;20056;-74
2022/10/27 00:11:53;;;;;;;10.00;3.42;;;;;;;;;;5001522;28;20146;-76
2022/10/27 00:14:39;;;;;;;12.52;3.35;;;;;;;;;;4997190;28;20137;-77
2022/10/27 00:17:24;;;;;;;13.55;4.78;;;;;;;;;;5012998;28;20439;-77
2022/10/27 00:20:09;;;;;;;13.38;4.28;;;;;;;;;;5006986;28;20090;-77
2022/10/27 00:22:55;;;;;;;6.47;3.15;;;;;;;;;;4999454;28;20032;-75
2022/10/27 00:25:40;;;;;;;14.10;3.50;;;;;;;;;;5015953;28;20047;-76
2022/10/27 00:28:26;;;;;;;12.52;3.78;;;;;;;;;;4998433;28;20021;-76
2022/10/27 00:31:18;;;;;;;11.77;3.95;;;;;;;;;;4996133;28;20330;-74
2022/10/27 00:34:04;;;;;;;12.00;3.40;;;;;;;;;;5012333;28;20076;-74
2022/10/27 00:36:49;;;;;;;17.92;3.83;;;;;;;;;;5011741;28;20037;-74
2022/10/27 00:39:34;;;;;;;10.95;4.72;;;;;;;;;;5010037;28;20535;-75
2022/10/27 00:42:19;;;;;;;9.43;3.03;;;;;;;;;;4993748;28;20021;-74
2022/10/27 00:45:05;;;;;;;11.40;3.55;;;;;;;;;;4996372;28;20029;-76
2022/10/27 00:47:50;;;;;;;10.07;3.72;;;;;;;;;;4991956;28;20022;-78
2022/10/27 00:50:35;;;;;;;8.90;3.17;;;;;;;;;;4991782;28;20061;-80
2022/10/27 00:53:21;;;;;;;10.63;3.40;;;;;;;;;;5013745;28;20540;-76
2022/10/27 00:56:06;;;;;;;10.27;4.05;;;;;;;;;;5002940;28;20037;-78
2022/10/27 00:58:51;;;;;;;7.32;3.00;;;;;;;;;;5000504;28;20033;-77
2022/10/27 01:01:37;;;;;;;10.02;3.53;;;;;;;;;;5016750;28;20108;-77
2022/10/27 01:04:45;;;;;;;20.02;5.07;;;;;;;;;;4991888;28;20032;-75
2022/10/27 01:07:31;;;;;;;16.60;3.83;;;;;;;;;;5002382;28;20203;-78
2022/10/27 01:10:17;;;;;;;14.80;4.30;;;;;;;;;;4996872;28;20480;-76
2022/10/27 01:13:02;;;;;;;8.57;2.97;;;;;;;;;;5003529;28;20037;-76
2022/10/27 01:16:03;;;;;;;11.20;3.35;;;;;;;;;;5001171;28;20057;-77
2022/10/27 01:19:07;;;;;;;9.18;3.60;;;;;;;;;;5000414;28;20029;-77
2022/10/27 01:21:54;;;;;;;11.02;3.85;;;;;;;;;;5016048;28;20448;-78
2022/10/27 01:24:58;;;;;;;7.40;3.17;;;;;;;;;;5001198;28;20491;-77
2022/10/27 01:27:46;;;;;;;21.73;5.65;;;;;;;;;;5001400;28;20064;-75
2022/10/27 01:30:35;;;;;;;8.65;3.55;;;;;;;;;;5009635;28;20480;-77
2022/10/27 01:33:24;;;;;;;7.77;3.10;;;;;;;;;;5002167;28;20057;-76
2022/10/27 01:36:18;;;;;;;8.02;3.22;;;;;;;;;;5002882;28;20037;-77
2022/10/27 01:39:23;;;;;;;8.98;3.08;;;;;;;;;;5002337;28;20087;-76
2022/10/27 01:42:11;;;;;;;7.53;3.53;;;;;;;;;;4995586;28;20440;-76
2022/10/27 01:44:57;;;;;;;11.35;3.28;;;;;;;;;;5001791;28;20440;-75
2022/10/27 01:47:42;;;;;;;11.45;5.22;;;;;;;;;;5009194;28;20578;-74
2022/10/27 01:50:32;;;;;;;10.13;3.63;;;;;;;;;;5028236;28;20029;-76
2022/10/27 01:53:17;;;;;;;;;;;;;;;;;;5000460;28;20485;-75
2022/10/27 01:56:03;;;;;;;12.48;3.38;;;;;;;;;;5016591;28;20003;-74
2022/10/27 01:59:03;;;;;;;12.07;3.70;;;;;;;;;;5003146;28;20025;-75
2022/10/27 02:01:54;;;;;;;10.80;3.60;;;;;;;;;;5001362;28;20053;-75
2022/10/27 02:04:46;;;;;;;8.88;3.33;;;;;;;;;;5001346;28;20025;-75
2022/10/27 02:07:35;;;;;;;8.18;3.30;;;;;;;;;;5015285;28;20029;-71
2022/10/27 02:10:27;;;;;;;6.55;3.35;;;;;;;;;;5002693;28;20037;-73
2022/10/27 02:13:13;;;;;;;9.32;3.63;;;;;;;;;;5015042;28;20029;-74
2022/10/27 02:16:03;;;;;;;7.00;3.17;;;;;;;;;;5015118;28;20025;-73
2022/10/27 02:19:01;;;;;;;11.10;3.97;;;;;;;;;;4997850;28;20052;-73
2022/10/27 02:21:49;;;;;;;8.65;3.28;;;;;;;;;;5009975;28;20587;-77
2022/10/27 02:24:34;;;;;;;10.98;3.47;;;;;;;;;;5015735;28;20072;-77
2022/10/27 02:27:26;;;;;;;13.25;3.72;;;;;;;;;;4988819;28;20021;-75
2022/10/27 02:30:11;;;;;;;7.57;3.63;;;;;;;;;;5002321;28;20120;-79
2022/10/27 02:32:57;;;;;;;8.55;3.42;;;;;;;;;;5013756;28;20064;-77
2022/10/27 02:35:42;;;;;;;13.20;4.13;;;;;;;;;;5002057;28;20022;-78
2022/10/27 02:38:28;;;;;;;9.90;3.65;;;;;;;;;;5011294;28;20049;-77
2022/10/27 02:41:13;;;;;;;9.80;4.20;;;;;;;;;;4997826;28;20316;-75
2022/10/27 02:43:58;;;;;;;10.40;3.65;;;;;;;;;;4999865;28;20559;-78
2022/10/27 02:46:43;;;;;;;13.95;3.33;;;;;;;;;;4992177;28;20540;-78
2022/10/27 02:49:28;;;;;;;10.95;3.40;;;;;;;;;;4999458;28;20056;-77
2022/10/27 02:52:14;;;;;;;11.43;4.95;;;;;;;;;;5000809;28;20064;-77
2022/10/27 02:54:59;;;;;;;15.82;4.07;;;;;;;;;;5001446;28;20388;-77
2022/10/27 02:57:45;;;;;;;10.85;3.38;;;;;;;;;;5005795;28;20021;-75
2022/10/27 03:00:30;;;;;;;15.23;4.85;;;;;;;;;;4993970;28;20057;-76
2022/10/27 03:03:15;;;;;;;11.50;3.53;;;;;;;;;;5006798;28;20159;-75
2022/10/27 03:06:01;;;;;;;11.20;4.25;;;;;;;;;;5008360;28;20025;-78
2022/10/27 03:08:46;;;;;;;12.20;4.72;;;;;;;;;;5011902;28;20053;-75
2022/10/27 03:11:31;;;;;;;10.27;3.53;;;;;;;;;;5014951;28;20486;-75
2022/10/27 03:14:16;;;;;;;11.55;4.07;;;;;;;;;;5012979;28;20087;-76
2022/10/27 03:17:01;;;;;;;11.43;3.60;;;;;;;;;;4997678;28;20534;-75
2022/10/27 03:19:47;;;;;;;10.90;4.10;;;;;;;;;;5013088;28;20017;-76
2022/10/27 03:22:35;;;;;;;11.82;4.00;;;;;;;;;;4997769;28;20025;-75
2022/10/27 03:25:20;;;;;;;15.80;4.25;;;;;;;;;;5012828;28;20573;-75
2022/10/27 03:28:05;;;;;;;14.32;4.38;;;;;;;;;;5011039;28;20026;-76
2022/10/27 03:30:51;;;;;;;9.85;4.25;;;;;;;;;;5008026;28;20253;-74
2022/10/27 03:33:36;;;;;;;10.98;4.00;;;;;;;;;;4993537;28;20051;-77
2022/10/27 03:36:21;;;;;;;10.93;4.68;;;;;;;;;;5004307;28;20116;-77
2022/10/27 03:39:06;;;;;;;9.32;4.25;;;;;;;;;;4996181;28;20555;-74
2022/10/27 03:41:51;;;;;;;13.48;4.90;;;;;;;;;;5018599;28;20014;-73
2022/10/27 03:44:37;;;;;;;6.65;3.55;;;;;;;;;;5014411;28;20039;-72
2022/10/27 03:47:22;;;;;;;14.85;3.90;;;;;;;;;;5012954;28;20108;-71
2022/10/27 03:50:07;;;;;;;14.48;4.30;;;;;;;;;;5016994;28;20038;-72
2022/10/27 03:52:52;;;;;;;14.23;5.13;;;;;;;;;;5016608;28;20107;-76
2022/10/27 03:55:38;;;;;;;11.70;3.80;;;;;;;;;;5016588;28;20365;-74
2022/10/27 03:58:23;;;;;;;10.27;5.03;;;;;;;;;;5003962;28;20029;-78
2022/10/27 04:01:08;;;;;;;24.10;4.90;;;;;;;;;;4999621;28;20112;-76
2022/10/27 04:03:54;;;;;;;11.85;3.67;;;;;;;;;;4994390;28;20029;-76
2022/10/27 04:06:39;;;;;;;11.82;3.80;;;;;;;;;;5014266;28;20029;-77
2022/10/27 04:09:24;;;;;;;7.55;3.80;;;;;;;;;;4999693;28;20037;-77
2022/10/27 04:12:10;;;;;;;13.25;4.15;;;;;;;;;;4992584;28;20036;-75
2022/10/27 04:14:55;;;;;;;14.60;4.38;;;;;;;;;;4994807;28;20532;-75
2022/10/27 04:17:40;;;;;;;11.32;4.85;;;;;;;;;;4994435;28;20030;-77
2022/10/27 04:20:26;;;;;;;10.23;4.10;;;;;;;;;;4994169;28;20029;-76
2022/10/27 04:23:11;;;;;;;11.50;4.30;;;;;;;;;;4995994;28;20064;-77
2022/10/27 04:25:57;;;;;;;9.52;3.95;;;;;;;;;;4992041;28;20084;-74
2022/10/27 04:28:42;;;;;;;10.20;4.00;;;;;;;;;;4988024;28;20025;-75
2022/10/27 04:31:27;;;;;;;11.52;3.95;;;;;;;;;;5010326;28;20053;-75
2022/10/27 04:34:12;;;;;;;8.65;4.50;;;;;;;;;;5013174;28;20071;-76
2022/10/27 04:36:57;;;;;;;7.95;3.67;;;;;;;;;;4999764;28;20045;-75
2022/10/27 04:39:43;;;;;;;8.60;4.03;;;;;;;;;;5013040;28;20379;-77
2022/10/27 04:42:28;;;;;;;10.98;4.00;;;;;;;;;;5013212;28;20025;-78
2022/10/27 04:45:13;;;;;;;9.52;4.38;;;;;;;;;;4996687;28;20099;-77
2022/10/27 04:47:59;;;;;;;12.23;4.35;;;;;;;;;;5013391;28;20451;-78
2022/10/27 04:50:44;;;;;;;9.18;3.63;;;;;;;;;;4992233;28;20509;-76
2022/10/27 04:53:29;;;;;;;10.35;4.50;;;;;;;;;;4993756;28;20305;-79
2022/10/27 04:56:14;;;;;;;9.95;4.85;;;;;;;;;;5010152;28;20026;-79
2022/10/27 04:59:00;;;;;;;9.50;3.90;;;;;;;;;;4994998;28;20425;-79
2022/10/27 05:01:45;;;;;;;20.48;5.60;;;;;;;;;;4994429;28;20104;-79
2022/10/27 05:04:30;;;;;;;10.45;4.43;;;;;;;;;;5008486;28;20030;-80
2022/10/27 05:07:15;;;;;;;10.13;4.95;;;;;;;;;;5005463;28;20041;-82
2022/10/27 05:10:01;;;;;;;9.90;4.15;;;;;;;;;;5000202;28;20376;-74
2022/10/27 05:12:46;;;;;;;11.18;3.92;;;;;;;;;;5005767;28;20053;-74
2022/10/27 05:15:31;;;;;;;9.60;4.85;;;;;;;;;;5005356;28;20097;-74
2022/10/27 05:18:17;;;;;;;12.00;4.00;;;;;;;;;;5005081;28;20480;-81
2022/10/27 05:21:02;;;;;;;8.23;4.00;;;;;;;;;;4992721;28;20029;-79
2022/10/27 05:23:47;;;;;;;11.40;4.03;;;;;;;;;;4997353;28;20096;-81
2022/10/27 05:26:33;;;;;;;10.27;4.55;;;;;;;;;;4995527;28;20049;-82
2022/10/27 05:29:18;;;;;;;12.27;4.25;;;;;;;;;;5003068;28;20044;-83
2022/10/27 05:32:03;;;;;;;9.65;3.67;;;;;;;;;;5004556;28;20405;-81
2022/10/27 05:34:48;;;;;;;14.88;4.10;;;;;;;;;;5002630;28;20061;-79
2022/10/27 05:37:34;;;;;;;9.80;5.00;;;;;;;;;;5006250;28;20024;-81
2022/10/27 05:40:19;;;;;;;11.88;4.32;;;;;;;;;;5003795;28;20064;-78
2022/10/27 05:43:04;;;;;;;13.73;5.70;;;;;;;;;;5009707;28;20057;-78
2022/10/27 05:45:50;;;;;;;12.57;4.30;;;;;;;;;;5014128;28;20392;-78
2022/10/27 05:48:35;;;;;;;8.65;3.95;;;;;;;;;;5019303;28;20048;-75
2022/10/27 05:51:20;;;;;;;9.98;3.92;;;;;;;;;;5022542;28;20382;-74
2022/10/27 05:54:06;;;;;;;7.13;3.85;;;;;;;;;;5019498;28;20026;-74
2022/10/27 05:56:51;;;;;;;13.98;4.82;;;;;;;;;;5021244;28;20076;-73
2022/10/27 05:59:36;;;;;;;12.45;5.07;;;;;;;;;;5008486;28;20055;-74
2022/10/27 06:02:21;;;;;;;10.73;4.57;;;;;;;;;;5010644;28;20085;-78
2022/10/27 06:05:07;;;;;;;10.15;4.15;;;;;;;;;;5003247;28;20397;-75
2022/10/27 06:07:52;;;;;;;10.70;4.35;;;;;;;;;;5001382;28;20018;-74
2022/10/27 06:10:38;;;;;;;17.42;5.32;;;;;;;;;;5016229;28;20412;-75
2022/10/27 06:13:23;;;;;;;11.35;4.30;;;;;;;;;;5006891;28;20128;-75
2022/10/27 06:16:09;;;;;;;15.98;5.25;;;;;;;;;;5015449;28;20025;-75
2022/10/27 06:18:54;;;;;;;12.38;4.80;;;;;;;;;;4991444;28;20068;-75
2022/10/27 06:21:39;;;;;;;14.25;5.20;;;;;;;;;;4996562;28;20025;-79
2022/10/27 06:24:24;;;;;;;15.27;5.50;;;;;;;;;;5015549;28;20108;-75
2022/10/27 06:27:09;;;;;;;14.98;5.40;;;;;;;;;;5015894;28;20033;-74
2022/10/27 06:29:55;;;;;;;15.25;4.97;;;;;;;;;;5017741;28;20029;-74
2022/10/27 06:32:40;;;;;;;12.70;6.47;;;;;;;;;;5009983;28;20141;-76
2022/10/27 06:35:25;;;;;;;15.88;5.07;;;;;;;;;;5003253;28;20576;-76
2022/10/27 06:38:15;;;;;;;15.23;5.70;;;;;;;;;;5002014;28;20033;-75
2022/10/27 06:41:00;;;;;;;20.27;5.70;;;;;;;;;;5022097;28;20033;-75
2022/10/27 06:43:45;;;;;;;14.43;5.07;;;;;;;;;;5002234;28;20025;-76
2022/10/27 06:46:33;;;;;;;10.77;5.47;;;;;;;;;;5004328;28;20456;-75
2022/10/27 06:49:18;;;;;;;12.93;6.82;;;;;;;;;;4998415;28;20487;-73
2022/10/27 06:52:03;;;;;;;15.32;6.10;;;;;;;;;;5000169;28;20044;-74
2022/10/27 06:54:49;;;;;;;16.52;6.55;;;;;;;;;;5008844;28;20029;-76
2022/10/27 06:57:38;;;;;;;13.50;5.70;;;;;;;;;;5006262;28;20057;-79
2022/10/27 07:00:23;;;;;;;15.75;5.63;;;;;;;;;;5014828;28;20060;-73
2022/10/27 07:03:09;;;;;;;12.93;6.00;;;;;;;;;;5013013;28;20143;-74
2022/10/27 07:05:54;;;;;;;14.93;5.82;;;;;;;;;;5024959;28;20445;-75
2022/10/27 07:08:39;;;;;;;14.02;5.85;;;;;;;;;;5002167;28;20108;-74
2022/10/27 07:11:27;;;;;;;10.77;5.28;;;;;;;;;;5002646;28;20108;-72
2022/10/27 07:14:12;;;;;;;15.68;5.75;;;;;;;;;;5001498;28;20063;-72
2022/10/27 07:16:58;;;;;;;16.70;5.55;;;;;;;;;;5017895;28;20388;-75
2022/10/27 07:19:43;;;;;;;11.20;5.78;;;;;;;;;;5017291;28;20029;-76
2022/10/27 07:22:28;;;;;;;20.50;5.78;;;;;;;;;;5013823;28;20043;-78
2022/10/27 07:25:14;;;;;;;11.45;4.78;;;;;;;;;;5023018;28;20025;-80
2022/10/27 07:28:01;;;;;;;10.57;5.05;;;;;;;;;;5003938;28;20053;-79
2022/10/27 07:30:47;;;;;;;12.70;5.32;;;;;;;;;;5028638;28;20507;-79
2022/10/27 07:33:32;;;;;;;12.50;5.07;;;;;;;;;;5002547;28;20057;-78
2022/10/27 07:36:17;;;;;;;12.55;6.25;;;;;;;;;;4997299;28;20311;-80
2022/10/27 07:39:02;;;;;;;11.27;5.78;;;;;;;;;;4995881;28;20411;-73
2022/10/27 07:41:48;;;;;;;16.55;6.25;;;;;;;;;;4996893;28;20097;-74
2022/10/27 07:44:33;;;;;;;22.88;6.85;;;;;;;;;;5010948;28;20362;-77
2022/10/27 07:47:18;;;;;;;10.82;5.45;;;;;;;;;;5001437;28;20025;-75
2022/10/27 07:50:03;;;;;;;12.02;5.32;;;;;;;;;;4999702;28;20072;-73
2022/10/27 07:52:50;;;;;;;14.30;5.68;;;;;;;;;;4997049;28;20177;-74
2022/10/27 07:55:36;;;;;;;13.05;6.35;;;;;;;;;;4995369;28;20032;-73
2022/10/27 07:58:21;;;;;;;16.67;5.78;;;;;;;;;;4995973;28;20032;-74
2022/10/27 08:01:06;;;;;;;11.98;5.97;;;;;;;;;;4999581;28;20072;-75
2022/10/27 08:03:52;;;;;;;15.82;5.90;;;;;;;;;;4996628;28;20024;-75
2022/10/27 08:06:37;;;;;;;12.93;6.18;;;;;;;;;;4998850;28;20026;-75
2022/10/27 08:09:22;;;;;;;13.98;5.40;;;;;;;;;;5003496;28;20030;-74
2022/10/27 08:12:08;;;;;;;15.75;5.10;;;;;;;;;;4994834;28;20389;-79
2022/10/27 08:14:53;;;;;;;16.23;6.25;;;;;;;;;;5010254;28;20037;-75
2022/10/27 08:17:38;;;;;;;14.07;5.30;;;;;;;;;;4998710;28;20026;-75
2022/10/27 08:20:24;;;;;;;10.27;5.30;;;;;;;;;;4997525;28;20038;-73
2022/10/27 08:23:12;;;;;;;14.88;5.88;;;;;;;;;;5012939;28;20051;-73
2022/10/27 08:25:57;;;;;;;10.38;5.15;;;;;;;;;;5008173;28;20049;-76
2022/10/27 08:28:42;;;;;;;12.27;4.88;;;;;;;;;;4997618;28;20392;-76
2022/10/27 08:31:28;;;;;;;12.38;5.07;;;;;;;;;;5008652;28;20038;-75
2022/10/27 08:34:13;;;;;;;9.80;4.55;;;;;;;;;;5001054;28;20054;-79
2022/10/27 08:36:59;;;;;;;14.55;5.38;;;;;;;;;;4994196;28;20022;-77
2022/10/27 08:39:44;;;;;;;12.43;5.18;;;;;;;;;;4999869;28;20527;-78
2022/10/27 08:42:38;;;;;;;9.13;5.07;;;;;;;;;;4996930;28;20098;-77
2022/10/27 08:45:27;;;;;;;12.10;5.03;;;;;;;;;;4999829;28;20022;-74
2022/10/27 08:48:14;;;;;;;11.30;4.90;;;;;;;;;;4996240;28;20026;-75
2022/10/27 08:51:00;;;;;;;9.93;5.50;;;;;;;;;;5011469;28;20657;-73
2022/10/27 08:53:47;;;;;;;13.35;5.15;;;;;;;;;;4994573;28;20034;-74
2022/10/27 08:56:37;;;;;;;23.35;5.45;;;;;;;;;;5024495;28;20029;-74
2022/10/27 08:59:23;;;;;;;16.65;5.53;;;;;;;;;;5016224;28;20037;-73
2022/10/27 09:02:20;;;;;;;16.77;5.28;;;;;;;;;;5010974;28;20072;-74
2022/10/27 09:05:20;;;;;;;9.90;4.60;;;;;;;;;;5019391;28;20400;-74
2022/10/27 09:08:26;;;;;;;15.25;4.43;;;;;;;;;;4994996;28;20037;-75
2022/10/27 09:11:37;;;;;;;15.13;6.03;;;;;;;;;;4999433;28;20049;-79
2022/10/27 09:14:33;;;;;;;11.55;4.47;;;;;;;;;;5013874;28;20088;-77
2022/10/27 09:17:22;;;;;;;9.18;4.57;;;;;;;;;;5003342;28;20080;-75
2022/10/27 09:20:13;;;;;;;11.35;3.83;;;;;;;;;;5015255;28;20373;-75
2022/10/27 09:23:00;;;;;;;12.20;3.65;;;;;;;;;;5009179;28;20084;-77
2022/10/27 09:25:46;;;;;;;9.57;4.25;;;;;;;;;;5008196;28;20105;-72
2022/10/27 09:28:35;;;;;;;9.55;4.22;;;;;;;;;;5030294;23;20049;-70
2022/10/27 09:31:24;;;;;;;10.15;3.40;;;;;;;;;;5030946;28;20038;-69
2022/10/27 09:34:13;;;;;;;10.90;4.00;;;;;;;;;;5042370;28;20399;-67
2022/10/27 09:36:58;;;;;;;11.02;4.00;;;;;;;;;;5028282;28;20126;-69
2022/10/27 09:39:50;;;;;;;11.23;3.17;;;;;;;;;;5030936;28;20052;-69
2022/10/27 09:42:36;;;;;;;9.57;3.20;;;;;;;;;;5031578;28;20064;-69
2022/10/27 09:45:22;;;;;;;14.15;4.35;;;;;;;;;;5030170;28;20032;-68
2022/10/27 09:48:12;;;;;;;12.95;3.75;;;;;;;;;;5030731;28;20033;-72
2022/10/27 09:51:00;;;;;;;8.52;4.13;;;;;;;;;;5029127;28;20492;-81
2022/10/27 09:53:46;;;;;;;6.72;3.15;;;;;;;;;;5028436;28;20075;-81
2022/10/27 09:56:35;;;;;;;10.90;3.33;;;;;;;;;;5043771;28;20033;-81
2022/10/27 09:59:21;;;;;;;12.48;3.38;;;;;;;;;;5028017;28;20022;-79
2022/10/27 10:02:25;;;;;;;6.47;2.63;;;;;;;;;;5025658;28;20034;-73
2022/10/27 10:05:21;;;;;;;12.32;3.35;;;;;;;;;;5042189;28;20653;-70
2022/10/27 10:08:12;;;;;;;7.40;2.92;;;;;;;;;;5027354;28;20120;-68
2022/10/27 10:11:05;;;;;;;17.17;3.88;;;;;;;;;;5041027;28;20064;-69
2022/10/27 10:13:58;;;;;;;8.15;3.03;;;;;;;;;;5030101;28;20400;-69
2022/10/27 10:16:43;;;;;;;11.18;4.10;;;;;;;;;;5014438;28;20528;-67
2022/10/27 10:19:28;;;;;;;9.80;3.03;;;;;;;;;;5028776;28;20384;-72
2022/10/27 10:22:20;;;;;;;18.98;3.60;;;;;;;;;;5027946;28;20061;-70
2022/10/27 10:25:21;;;;;;;6.82;2.95;;;;;;;;;;5030489;28;20116;-81
2022/10/27 10:28:07;;;;;;;6.93;3.47;;;;;;;;;;5013640;28;20042;-81
2022/10/27 10:30:53;;;;;;;9.75;3.33;;;;;;;;;;5031335;28;20062;-80
2022/10/27 10:33:39;;;;;;;9.30;3.40;;;;;;;;;;5022114;28;20065;-80
2022/10/27 10:36:49;;;;;;;10.23;3.13;;;;;;;;;;5028782;28;20030;-80
2022/10/27 10:39:35;;;;;;;8.65;2.75;;;;;;;;;;5034635;28;20547;-80
2022/10/27 10:42:20;;;;;;;8.00;2.83;;;;;;;;;;5024969;28;20037;-70
2022/10/27 10:45:25;;;;;;;9.48;2.92;;;;;;;;;;5027885;28;20025;-71
2022/10/27 10:48:13;;;;;;;10.80;2.90;;;;;;;;;;5008248;28;20619;-69
2022/10/27 10:50:59;;;;;;;7.40;2.55;;;;;;;;;;5027698;28;20064;-69
2022/10/27 10:53:48;;;;;;;13.07;2.97;;;;;;;;;;5027456;28;20037;-70
2022/10/27 10:56:35;;;;;;;9.70;3.10;;;;;;;;;;5027987;28;20033;-69
2022/10/27 10:59:26;;;;;;;9.48;3.20;;;;;;;;;;5027589;28;20032;-69
2022/10/27 11:02:14;;;;;;;10.85;2.85;;;;;;;;;;5026184;28;20071;-69
2022/10/27 11:05:13;;;;;;;12.60;2.80;;;;;;;;;;5041845;28;20111;-70
2022/10/27 11:07:58;;;;;;;13.68;3.70;;;;;;;;;;5025770;28;20037;-67
2022/10/27 11:10:44;;;;;;;9.68;3.15;;;;;;;;;;5026621;28;20037;-72
2022/10/27 11:13:36;;;;;;;20.40;3.50;;;;;;;;;;5024735;28;20037;-71
2022/10/27 11:16:23;;;;;;;8.75;2.83;;;;;;;;;;5025375;28;20036;-71
2022/10/27 11:19:10;;;;;;;11.63;3.22;;;;;;;;;;5017148;28;20455;-69
2022/10/27 11:21:58;;;;;;;8.18;2.95;;;;;;;;;;5026955;28;20424;-71
2022/10/27 11:24:47;;;;;;;6.87;2.63;;;;;;;;;;5028128;28;20021;-70
2022/10/27 11:27:40;;;;;;;9.43;3.03;;;;;;;;;;5027499;28;20108;-71
2022/10/27 11:30:26;;;;;;;7.95;2.40;;;;;;;;;;5032935;28;20029;-71
2022/10/27 11:33:18;;;;;;;7.38;2.58;;;;;;;;;;5032673;28;20500;-71
2022/10/27 11:36:10;;;;;;;12.65;3.17;;;;;;;;;;5032972;28;20032;-71
2022/10/27 11:38:55;;;;;;;6.95;3.00;;;;;;;;;;5016851;28;20121;-72
2022/10/27 11:41:42;;;;;;;10.82;2.95;;;;;;;;;;5033434;28;20040;-71
2022/10/27 11:44:42;;;;;;;7.65;3.25;;;;;;;;;;5032856;28;20037;-74
2022/10/27 11:47:31;;;;;;;12.73;2.92;;;;;;;;;;5032908;28;20484;-72
2022/10/27 11:50:25;;;;;;;10.15;3.42;;;;;;;;;;5031763;28;20472;-75
2022/10/27 11:53:10;;;;;;;8.98;2.92;;;;;;;;;;5033010;28;20052;-70
2022/10/27 11:55:55;;;;;;;9.63;3.13;;;;;;;;;;5033055;28;20116;-82
2022/10/27 11:58:43;;;;;;;8.80;3.17;;;;;;;;;;5032778;28;20037;-86
2022/10/27 12:01:48;;;;;;;14.73;3.63;;;;;;;;;;5013437;28;20024;-82
2022/10/27 12:04:52;;;;;;;7.60;2.50;;;;;;;;;;5032803;28;20027;-80
2022/10/27 12:07:45;;;;;;;8.00;2.88;;;;;;;;;;5011065;28;20068;-80
2022/10/27 12:10:46;;;;;;;14.27;3.00;;;;;;;;;;5037553;28;20426;-78
2022/10/27 12:13:50;;;;;;;13.57;3.05;;;;;;;;;;5027553;28;20035;-71
2022/10/27 12:16:35;;;;;;;8.65;3.28;;;;;;;;;;5031895;28;20066;-72
2022/10/27 12:19:29;;;;;;;9.95;3.83;;;;;;;;;;5030672;28;20025;-71
2022/10/27 12:22:25;;;;;;;8.55;2.88;;;;;;;;;;5029582;28;20029;-70
2022/10/27 12:25:13;;;;;;;6.00;2.67;;;;;;;;;;5019786;28;20024;-70
2022/10/27 12:28:01;;;;;;;10.45;3.20;;;;;;;;;;5033373;28;20080;-72
2022/10/27 12:30:46;;;;;;;7.90;2.95;;;;;;;;;;5031577;28;20032;-73
2022/10/27 12:33:38;;;;;;;8.38;2.92;;;;;;;;;;5033459;28;20033;-71
2022/10/27 12:36:33;;;;;;;10.55;2.47;;;;;;;;;;5018943;28;20028;-71
2022/10/27 12:39:27;;;;;;;17.35;3.67;;;;;;;;;;5032032;28;20548;-70
2022/10/27 12:42:31;;;;;;;12.85;2.83;;;;;;;;;;5031965;28;20033;-70
2022/10/27 12:45:19;;;;;;;8.07;2.75;;;;;;;;;;5033195;28;20079;-73
2022/10/27 12:48:20;;;;;;;11.63;3.08;;;;;;;;;;5034967;28;20037;-79
2022/10/27 12:51:14;;;;;;;7.38;3.08;;;;;;;;;;5036774;28;20114;-81
2022/10/27 12:54:18;;;;;;;10.00;2.50;;;;;;;;;;5039927;28;20057;-84
2022/10/27 12:57:06;;;;;;;8.43;2.40;;;;;;;;;;5038492;28;20037;-81
2022/10/27 13:00:04;;;;;;;12.07;2.63;;;;;;;;;;5031500;28;20029;-81
2022/10/27 13:02:50;;;;;;;8.13;2.60;;;;;;;;;;5037035;28;20029;-82
2022/10/27 13:05:38;;;;;;;7.32;2.90;;;;;;;;;;5042438;28;20048;-78
2022/10/27 13:08:36;;;;;;;6.80;2.65;;;;;;;;;;5046943;28;20025;-71
2022/10/27 13:11:35;;;;;;;12.65;3.28;;;;;;;;;;5035310;28;20529;-71
2022/10/27 13:14:32;;;;;;;12.67;3.60;;;;;;;;;;5021496;28;20259;-71
2022/10/27 13:17:24;;;;;;;12.13;2.90;;;;;;;;;;5031486;28;20029;-74
2022/10/27 13:20:36;;;;;;;14.00;3.88;;;;;;;;;;5043231;28;20033;-69
2022/10/27 13:23:24;;;;;;;9.98;4.30;;;;;;;;;;5032347;28;20644;-74
2022/10/27 13:26:12;;;;;;;9.40;2.35;;;;;;;;;;5028055;28;20033;-71
2022/10/27 13:28:57;;;;;;;9.98;3.00;;;;;;;;;;5035503;28;20057;-86
2022/10/27 13:31:43;;;;;;;9.65;2.72;;;;;;;;;;5035982;28;20484;-86
2022/10/27 13:34:28;;;;;;;10.82;4.57;;;;;;;;;;5028292;28;20075;-78
2022/10/27 13:37:32;;;;;;;14.65;3.78;;;;;;;;;;5033764;28;20125;-81
2022/10/27 13:40:20;;;;;;;10.48;3.33;;;;;;;;;;5035689;28;20376;-78
2022/10/27 13:43:21;;;;;;;14.68;3.15;;;;;;;;;;5034249;28;20043;-73
2022/10/27 13:46:07;;;;;;;10.77;3.40;;;;;;;;;;5038829;28;20033;-79
2022/10/27 13:48:52;;;;;;;11.85;2.42;;;;;;;;;;5018828;28;20029;-83
2022/10/27 13:51:41;;;;;;;7.45;2.50;;;;;;;;;;5032600;28;20044;-83
2022/10/27 13:54:45;;;;;;;8.40;2.70;;;;;;;;;;5046268;28;20049;-81
2022/10/27 13:57:49;;;;;;;22.85;3.58;;;;;;;;;;5034640;28;20033;-82
2022/10/27 14:00:51;;;;;;;11.02;2.72;;;;;;;;;;5034326;28;20029;-76
2022/10/27 14:03:36;;;;;;;16.77;2.97;;;;;;;;;;5011825;28;20044;-74
2022/10/27 14:06:29;;;;;;;7.72;3.13;;;;;;;;;;5035597;28;20456;-72
2022/10/27 14:09:23;;;;;;;9.70;3.22;;;;;;;;;;5034671;28;20741;-73
2022/10/27 14:12:36;;;;;;;10.23;2.80;;;;;;;;;;5021409;28;20032;-72
2022/10/27 14:15:25;;;;;;;8.50;3.05;;;;;;;;;;5018475;28;20041;-71
2022/10/27 14:18:31;;;;;;;10.98;3.30;;;;;;;;;;5033230;28;20040;-73
2022/10/27 14:21:17;;;;;;;9.20;2.53;;;;;;;;;;5034803;28;20032;-72
2022/10/27 14:24:05;;;;;;;11.00;2.70;;;;;;;;;;5033366;28;20020;-67
2022/10/27 14:26:58;;;;;;;9.55;3.28;;;;;;;;;;5027349;28;20048;-67
2022/10/27 14:29:43;;;;;;;11.60;4.07;;;;;;;;;;5032969;28;20055;-68
2022/10/27 14:32:28;;;;;;;11.20;3.63;;;;;;;;;;5034632;28;20476;-68
2022/10/27 14:35:25;;;;;;;9.88;3.55;;;;;;;;;;5034830;28;20025;-69
2022/10/27 14:38:13;;;;;;;13.38;3.30;;;;;;;;;;5033963;28;20067;-77
2022/10/27 14:40:58;;;;;;;10.38;3.50;;;;;;;;;;5018875;28;20488;-70
2022/10/27 14:43:45;;;;;;;8.75;3.35;;;;;;;;;;5020224;28;20033;-71
2022/10/27 14:46:43;;;;;;;9.13;4.07;;;;;;;;;;5034019;28;20218;-70
2022/10/27 14:49:30;;;;;;;14.65;3.15;;;;;;;;;;5033675;28;20327;-71
2022/10/27 14:52:23;;;;;;;9.10;3.15;;;;;;;;;;5032459;28;20027;-70
2022/10/27 14:55:34;;;;;;;6.82;3.20;;;;;;;;;;5020223;28;20056;-70
2022/10/27 14:58:21;;;;;;;10.65;3.72;;;;;;;;;;5032761;28;20443;-72
2022/10/27 15:01:27;;;;;;;14.77;3.97;;;;;;;;;;5032877;28;20067;-73
2022/10/27 15:04:25;;;;;;;13.10;2.92;;;;;;;;;;5031300;28;20392;-70
2022/10/27 15:07:12;;;;;;;12.77;3.33;;;;;;;;;;5032157;28;20094;-70
2022/10/27 15:09:58;;;;;;;12.60;3.10;;;;;;;;;;5033022;28;20029;-71
2022/10/27 15:12:48;;;;;;;14.50;3.53;;;;;;;;;;5032474;28;20040;-72
2022/10/27 15:15:35;;;;;;;12.63;3.58;;;;;;;;;;5016209;28;20029;-71
2022/10/27 15:18:21;;;;;;;12.40;3.95;;;;;;;;;;5031858;28;20066;-69
2022/10/27 15:21:12;;;;;;;17.48;3.50;;;;;;;;;;5035104;28;20025;-72
2022/10/27 15:23:59;;;;;;;8.68;3.47;;;;;;;;;;5033732;28;20045;-69
2022/10/27 15:26:45;;;;;;;9.90;3.17;;;;;;;;;;5025391;28;20093;-68
2022/10/27 15:29:30;;;;;;;12.57;4.15;;;;;;;;;;5032108;28;20191;-69
2022/10/27 15:32:26;;;;;;;16.17;3.92;;;;;;;;;;5032604;28;20460;-73
2022/10/27 15:35:47;;;;;;;10.88;4.18;;;;;;;;;;5035207;28;20082;-74
2022/10/27 15:38:32;;;;;;;10.93;2.97;;;;;;;;;;4928689;28;20046;-74
2022/10/27 15:41:19;;;;;;;14.25;4.13;;;;;;;;;;5014710;28;20476;-73
2022/10/27 15:44:15;;;;;;;10.15;3.80;;;;;;;;;;5034179;28;20108;-73
2022/10/27 15:47:08;;;;;;;11.98;3.55;;;;;;;;;;5033608;28;20529;-73
2022/10/27 15:49:53;;;;;;;13.45;3.78;;;;;;;;;;5020813;28;20108;-73
2022/10/27 15:52:38;;;;;;;12.02;4.15;;;;;;;;;;5033042;28;20629;-72
2022/10/27 15:55:26;;;;;;;13.77;4.75;;;;;;;;;;5034843;28;20028;-80
2022/10/27 15:58:27;;;;;;;12.95;5.35;;;;;;;;;;5034668;28;20029;-82
2022/10/27 16:01:32;;;;;;;16.45;4.78;;;;;;;;;;5039344;28;20033;-80
2022/10/27 16:04:22;;;;;;;14.93;4.82;;;;;;;;;;5035001;28;20021;-83
2022/10/27 16:07:10;;;;;;;18.98;4.38;;;;;;;;;;5034145;28;20372;-82
2022/10/27 16:09:55;;;;;;;14.88;5.28;;;;;;;;;;5030432;28;20254;-73
2022/10/27 16:12:41;;;;;;;13.50;4.70;;;;;;;;;;5032643;28;20087;-77
2022/10/27 16:15:27;;;;;;;14.80;5.00;;;;;;;;;;5033718;28;20406;-75
2022/10/27 16:18:13;;;;;;;11.93;5.43;;;;;;;;;;5033261;28;20036;-73
2022/10/27 16:20:58;;;;;;;10.57;4.53;;;;;;;;;;5019807;28;20033;-73
2022/10/27 16:23:44;;;;;;;19.50;4.50;;;;;;;;;;5032750;28;20249;-73
2022/10/27 16:26:29;;;;;;;11.13;4.88;;;;;;;;;;5033992;28;20040;-75
2022/10/27 16:29:15;;;;;;;15.30;4.45;;;;;;;;;;5019824;28;20057;-74
2022/10/27 16:32:01;;;;;;;16.38;4.63;;;;;;;;;;5033390;28;20110;-73
2022/10/27 16:34:46;;;;;;;13.23;4.13;;;;;;;;;;5030652;28;20480;-73
2022/10/27 16:37:32;;;;;;;15.45;4.15;;;;;;;;;;5030720;28;20032;-73
2022/10/27 16:40:17;;;;;;;14.05;4.03;;;;;;;;;;5032820;28;20029;-73